Time;durP1;ratioP1;P1;durP2;ratioP2;P2;SDS_P1;SDS_P2;PMS_P1;PMS_P2;Temp;Humidity;BMP_temperature;BMP_pressure;BME280_temperature;BME280_humidity;BME280_pressure;Samples;Min_cycle;Max_cycle;Signal;HPM_P1;HPM_P2
2021/04/25 00:01:31;;;;;;;13.97;5.73;;;11.00;62.40;;;;;;5099606;28;20270;-80
2021/04/25 00:03:57;;;;;;;12.20;4.90;;;10.90;63.00;;;;;;5099885;28;20425;-80
2021/04/25 00:06:23;;;;;;;20.53;5.90;;;10.80;63.40;;;;;;5100337;28;20481;-80
2021/04/25 00:08:48;;;;;;;9.13;4.73;;;10.90;63.40;;;;;;5100134;28;20467;-80
2021/04/25 00:11:14;;;;;;;10.80;4.60;;;10.80;63.40;;;;;;5100042;28;20206;-80
2021/04/25 00:13:43;;;;;;;10.23;4.83;;;10.80;63.40;;;;;;5100200;28;20425;-80
2021/04/25 00:16:09;;;;;;;11.63;5.05;;;10.80;64.10;;;;;;5099694;28;20423;-80
2021/04/25 00:18:35;;;;;;;14.68;5.93;;;10.80;64.40;;;;;;5099950;28;20174;-80
2021/04/25 00:21:01;;;;;;;12.90;4.70;;;10.70;64.80;;;;;;5099926;28;20172;-80
2021/04/25 00:23:27;;;;;;;9.00;4.60;;;10.60;64.90;;;;;;5099545;28;20512;-80
2021/04/25 00:25:53;;;;;;;11.40;5.17;;;10.70;64.60;;;;;;5099682;28;20591;-80
2021/04/25 00:28:19;;;;;;;10.83;4.00;;;10.60;64.80;;;;;;5100091;28;20220;-80
2021/04/25 00:30:45;;;;;;;11.10;4.60;;;10.60;64.90;;;;;;5100168;28;20258;-80
2021/04/25 00:33:10;;;;;;;9.45;5.32;;;10.60;64.90;;;;;;5099547;28;20202;-80
2021/04/25 00:35:36;;;;;;;10.53;4.87;;;10.60;64.90;;;;;;5099427;28;20227;-80
2021/04/25 00:38:03;;;;;;;11.37;4.03;;;10.60;65.20;;;;;;5099090;28;20199;-80
2021/04/25 00:40:29;;;;;;;20.52;5.15;;;10.60;65.30;;;;;;5099266;28;20405;-80
2021/04/25 00:42:55;;;;;;;11.02;4.35;;;10.60;65.30;;;;;;5099388;28;20194;-80
2021/04/25 00:45:21;;;;;;;19.70;5.63;;;10.50;65.30;;;;;;5098877;28;20187;-80
2021/04/25 00:47:49;;;;;;;20.13;8.27;;;10.60;65.20;;;;;;5099287;28;20417;-79
2021/04/25 00:50:20;;;;;;;12.43;6.07;;;10.50;65.30;;;;;;5098729;28;20401;-80
2021/04/25 00:52:47;;;;;;;8.48;4.45;;;10.40;65.50;;;;;;5098651;28;20195;-80
2021/04/25 00:55:16;;;;;;;8.95;4.95;;;10.40;66.00;;;;;;5098960;28;20191;-80
2021/04/25 00:57:43;;;;;;;11.65;4.45;;;10.40;66.30;;;;;;5098672;28;20232;-80
2021/04/25 01:00:11;;;;;;;8.43;4.57;;;10.30;66.30;;;;;;5098446;28;20171;-79
2021/04/25 01:02:38;;;;;;;10.38;4.60;;;10.30;66.60;;;;;;5098219;28;20199;-80
2021/04/25 01:05:06;;;;;;;9.52;4.15;;;10.30;66.30;;;;;;5098326;28;20656;-80
2021/04/25 01:07:32;;;;;;;8.43;4.13;;;10.30;66.20;;;;;;5098038;28;20178;-80
2021/04/25 01:09:58;;;;;;;13.43;4.50;;;10.30;66.20;;;;;;5098397;28;20175;-80
2021/04/25 01:12:24;;;;;;;6.35;3.50;;;10.30;66.30;;;;;;5098364;28;20528;-80
2021/04/25 01:14:50;;;;;;;15.73;4.80;;;10.20;66.40;;;;;;5098326;28;20198;-80
2021/04/25 01:17:17;;;;;;;9.60;4.63;;;10.20;66.40;;;;;;5098188;28;20444;-80
2021/04/25 01:19:43;;;;;;;12.18;4.40;;;10.20;66.20;;;;;;5098432;28;20646;-80
2021/04/25 01:22:08;;;;;;;7.90;4.20;;;10.20;66.60;;;;;;5098010;28;20171;-80
2021/04/25 01:24:34;;;;;;;14.40;4.50;;;10.20;66.60;;;;;;5098656;28;20509;-80
2021/04/25 01:27:00;;;;;;;14.30;4.40;;;10.20;66.70;;;;;;5098816;28;20623;-80
2021/04/25 01:29:26;;;;;;;10.93;4.90;;;10.20;66.60;;;;;;5098136;28;20416;-80
2021/04/25 01:31:52;;;;;;;12.00;4.73;;;10.20;66.40;;;;;;5098385;28;20266;-80
2021/04/25 01:34:18;;;;;;;7.32;3.70;;;10.20;66.40;;;;;;5098048;28;20417;-80
2021/04/25 01:36:44;;;;;;;12.13;5.13;;;10.10;66.70;;;;;;5098068;28;20172;-80
2021/04/25 01:39:09;;;;;;;10.20;4.53;;;10.10;66.90;;;;;;5098430;28;20775;-79
2021/04/25 01:41:35;;;;;;;9.80;4.00;;;10.10;67.00;;;;;;5098002;28;20470;-80
2021/04/25 01:44:02;;;;;;;8.23;4.60;;;10.00;66.90;;;;;;5098512;28;20191;-80
2021/04/25 01:46:29;;;;;;;8.55;4.30;;;10.00;67.30;;;;;;5081547;28;20806;-79
2021/04/25 01:48:55;;;;;;;13.83;4.90;;;9.90;67.80;;;;;;5097923;28;20264;-79
2021/04/25 01:51:21;;;;;;;11.63;4.82;;;9.80;68.10;;;;;;5095472;28;20955;-78
2021/04/25 01:53:47;;;;;;;9.68;3.95;;;9.70;68.50;;;;;;5094716;28;20198;-77
2021/04/25 01:56:13;;;;;;;14.47;5.50;;;9.70;68.80;;;;;;5094769;28;20564;-79
2021/04/25 01:58:38;;;;;;;10.17;4.70;;;9.60;69.10;;;;;;5097920;28;20405;-80
2021/04/25 02:01:05;;;;;;;14.30;4.47;;;9.60;68.90;;;;;;5098065;28;20513;-80
2021/04/25 02:03:31;;;;;;;12.98;6.18;;;9.60;69.20;;;;;;5097342;28;20424;-80
2021/04/25 02:05:56;;;;;;;7.53;4.00;;;9.60;69.10;;;;;;5097175;28;20649;-80
2021/04/25 02:08:23;;;;;;;10.17;4.00;;;9.50;69.50;;;;;;5097722;28;20167;-79
2021/04/25 02:10:50;;;;;;;8.95;4.50;;;9.60;69.20;;;;;;5097541;28;20421;-80
2021/04/25 02:13:17;;;;;;;18.73;4.32;;;9.50;69.60;;;;;;5097720;28;20198;-80
2021/04/25 02:15:44;;;;;;;10.60;5.82;;;9.50;69.90;;;;;;5097796;28;20167;-79
2021/04/25 02:18:11;;;;;;;11.25;5.32;;;9.40;70.10;;;;;;5097333;28;20641;-79
2021/04/25 02:20:36;;;;;;;12.10;4.97;;;9.40;70.20;;;;;;5097632;28;20163;-80
2021/04/25 02:23:02;;;;;;;13.47;4.77;;;9.40;70.10;;;;;;5097828;28;20221;-80
2021/04/25 02:25:28;;;;;;;10.53;5.37;;;9.40;70.20;;;;;;5098312;28;20429;-80
2021/04/25 02:27:54;;;;;;;14.30;4.83;;;9.30;70.60;;;;;;5097696;28;20240;-79
2021/04/25 02:30:29;;;;;;;13.48;4.05;;;9.30;70.90;;;;;;5097852;28;20416;-80
2021/04/25 02:32:56;;;;;;;14.35;5.03;;;9.30;70.60;;;;;;5096839;28;20274;-80
2021/04/25 02:35:22;;;;;;;17.20;6.25;;;9.30;70.90;;;;;;5097645;28;20175;-80
2021/04/25 02:37:49;;;;;;;11.57;4.90;;;9.30;70.60;;;;;;5097055;28;20174;-80
2021/04/25 02:40:18;;;;;;;11.90;5.45;;;9.40;70.90;;;;;;5097602;28;20163;-80
2021/04/25 02:42:45;;;;;;;13.02;5.95;;;9.40;70.50;;;;;;5097191;28;20312;-80
2021/04/25 02:45:15;;;;;;;13.43;4.43;;;9.40;70.20;;;;;;5097095;28;20202;-80
2021/04/25 02:47:46;;;;;;;11.05;5.18;;;9.30;70.20;;;;;;5097181;28;20171;-79
2021/04/25 02:50:13;;;;;;;10.75;4.32;;;9.30;70.30;;;;;;5098191;28;20175;-80
2021/04/25 02:52:39;;;;;;;9.50;4.35;;;9.30;70.30;;;;;;5101581;28;20202;-80
2021/04/25 02:55:06;;;;;;;11.93;5.10;;;9.30;70.60;;;;;;5101896;28;20174;-80
2021/04/25 02:57:32;;;;;;;9.48;4.45;;;9.30;70.50;;;;;;5100879;28;20167;-80
2021/04/25 02:59:58;;;;;;;12.07;5.73;;;9.40;70.80;;;;;;5100343;28;20281;-80
2021/04/25 03:02:24;;;;;;;9.33;4.10;;;9.40;70.30;;;;;;5100907;28;20417;-80
2021/04/25 03:04:50;;;;;;;7.67;4.60;;;9.30;70.60;;;;;;5101119;28;20274;-80
2021/04/25 03:07:17;;;;;;;15.02;5.82;;;9.30;71.30;;;;;;5100744;28;20512;-80
2021/04/25 03:09:43;;;;;;;11.10;5.43;;;9.30;71.00;;;;;;5100911;28;20183;-79
2021/04/25 03:12:09;;;;;;;16.50;5.40;;;9.20;71.40;;;;;;5100325;28;20693;-79
2021/04/25 03:14:34;;;;;;;9.75;4.43;;;9.20;71.90;;;;;;5100443;28;20507;-79
2021/04/25 03:17:00;;;;;;;14.40;4.73;;;9.20;70.90;;;;;;5100199;28;20647;-79
2021/04/25 03:19:26;;;;;;;13.30;4.80;;;9.20;71.70;;;;;;5118376;28;20450;-79
2021/04/25 03:21:55;;;;;;;9.45;4.75;;;9.10;71.90;;;;;;5099757;28;20498;-79
2021/04/25 03:24:21;;;;;;;11.90;4.80;;;9.10;72.40;;;;;;5100240;28;20288;-79
2021/04/25 03:26:47;;;;;;;12.17;5.60;;;9.10;72.60;;;;;;5100381;28;20865;-80
2021/04/25 03:29:16;;;;;;;10.55;5.43;;;9.10;72.30;;;;;;5099811;28;20167;-79
2021/04/25 03:31:42;;;;;;;17.60;5.25;;;9.10;72.70;;;;;;5100009;28;20203;-79
2021/04/25 03:34:08;;;;;;;11.03;5.10;;;9.00;72.80;;;;;;5100261;28;20602;-79
2021/04/25 03:36:34;;;;;;;11.87;4.93;;;9.00;72.70;;;;;;5099843;28;20485;-79
2021/04/25 03:38:59;;;;;;;18.03;5.13;;;9.00;72.70;;;;;;5099624;28;20174;-79
2021/04/25 03:41:26;;;;;;;13.20;5.27;;;8.90;73.00;;;;;;5099686;28;20576;-79
2021/04/25 03:43:53;;;;;;;11.45;5.15;;;8.90;72.70;;;;;;5099612;28;20493;-80
2021/04/25 03:46:19;;;;;;;10.70;5.20;;;8.90;73.10;;;;;;5099763;28;20254;-80
2021/04/25 03:48:45;;;;;;;14.45;5.70;;;8.90;72.70;;;;;;5099918;28;20171;-79
2021/04/25 03:51:11;;;;;;;14.60;5.10;;;8.90;73.30;;;;;;5099372;28;20555;-79
2021/04/25 03:53:37;;;;;;;7.25;4.80;;;8.90;73.70;;;;;;5099778;28;21007;-79
2021/04/25 03:56:03;;;;;;;11.57;4.82;;;8.90;73.50;;;;;;5099778;28;20514;-79
2021/04/25 03:58:29;;;;;;;8.48;5.40;;;8.80;73.30;;;;;;5100396;28;20205;-78
2021/04/25 04:00:55;;;;;;;13.37;5.43;;;8.80;73.50;;;;;;5099245;28;20167;-79
2021/04/25 04:03:21;;;;;;;11.63;5.73;;;8.70;73.40;;;;;;5097763;28;20516;-77
2021/04/25 04:05:49;;;;;;;16.93;5.80;;;8.60;73.40;;;;;;5096537;28;20421;-76
2021/04/25 04:08:15;;;;;;;17.20;5.63;;;8.60;73.40;;;;;;5096514;28;20412;-77
2021/04/25 04:10:40;;;;;;;11.60;5.13;;;8.50;74.10;;;;;;5096691;28;20174;-77
2021/04/25 04:13:06;;;;;;;12.60;5.60;;;8.40;74.10;;;;;;5096611;28;20214;-77
2021/04/25 04:15:35;;;;;;;13.80;5.50;;;8.40;74.10;;;;;;5096552;28;20491;-77
2021/04/25 04:18:01;;;;;;;15.93;4.60;;;8.30;74.20;;;;;;5096350;28;20515;-76
2021/04/25 04:20:26;;;;;;;15.83;5.93;;;8.30;74.50;;;;;;5096117;28;20225;-76
2021/04/25 04:22:52;;;;;;;12.27;5.70;;;8.20;74.90;;;;;;5096201;28;20205;-77
2021/04/25 04:25:18;;;;;;;16.00;5.50;;;8.20;74.90;;;;;;5096307;28;20553;-77
2021/04/25 04:27:44;;;;;;;15.73;5.13;;;8.20;74.90;;;;;;5096576;28;20205;-78
2021/04/25 04:30:10;;;;;;;10.80;4.63;;;8.20;75.30;;;;;;5097030;28;20167;-79
2021/04/25 04:32:36;;;;;;;11.35;5.55;;;8.10;75.60;;;;;;5096685;28;20199;-79
2021/04/25 04:35:03;;;;;;;11.23;5.47;;;8.10;75.50;;;;;;5097585;28;20190;-79
2021/04/25 04:37:29;;;;;;;15.15;5.43;;;8.10;75.80;;;;;;5097472;28;20413;-79
2021/04/25 04:39:54;;;;;;;14.90;5.50;;;8.10;75.80;;;;;;5097280;28;20206;-79
2021/04/25 04:42:20;;;;;;;9.57;5.43;;;8.10;75.80;;;;;;5098877;28;20172;-79
2021/04/25 04:44:46;;;;;;;12.23;5.20;;;8.20;75.60;;;;;;5098427;28;20198;-79
2021/04/25 04:47:12;;;;;;;18.05;5.43;;;8.10;76.00;;;;;;5097714;28;20191;-79
2021/04/25 04:49:47;;;;;;;14.20;5.23;;;8.10;75.80;;;;;;5097257;28;20589;-79
2021/04/25 04:52:13;;;;;;;11.25;4.72;;;8.10;75.80;;;;;;5096590;28;20516;-77
2021/04/25 04:54:39;;;;;;;14.10;4.87;;;8.10;76.30;;;;;;5095662;28;20187;-77
2021/04/25 04:57:05;;;;;;;14.87;6.50;;;8.00;76.70;;;;;;5095837;28;20207;-77
2021/04/25 04:59:31;;;;;;;14.50;5.35;;;8.00;77.00;;;;;;5095555;28;20415;-77
2021/04/25 05:01:56;;;;;;;15.63;6.63;;;8.00;77.40;;;;;;5095156;28;20228;-77
2021/04/25 05:04:22;;;;;;;15.40;6.13;;;8.00;77.40;;;;;;5095198;28;20194;-77
2021/04/25 05:06:48;;;;;;;10.77;5.07;;;8.00;77.10;;;;;;5095299;28;20171;-77
2021/04/25 05:09:14;;;;;;;14.63;5.37;;;8.00;77.60;;;;;;5095168;28;20925;-77
2021/04/25 05:11:39;;;;;;;13.50;5.37;;;8.10;77.10;;;;;;5094882;28;20457;-77
2021/04/25 05:14:05;;;;;;;12.03;5.07;;;8.10;76.90;;;;;;5094190;28;20649;-77
2021/04/25 05:16:31;;;;;;;13.33;5.50;;;8.10;77.00;;;;;;5094881;28;20432;-77
2021/04/25 05:18:57;;;;;;;16.13;6.37;;;8.10;77.00;;;;;;5095025;28;20167;-77
2021/04/25 05:21:23;;;;;;;11.03;5.80;;;8.10;77.60;;;;;;5094664;28;20420;-77
2021/04/25 05:23:48;;;;;;;20.80;6.80;;;8.00;77.60;;;;;;5094791;28;20579;-77
2021/04/25 05:26:14;;;;;;;13.97;6.30;;;8.00;77.60;;;;;;5094849;28;21006;-77
2021/04/25 05:28:40;;;;;;;20.33;6.50;;;8.00;77.70;;;;;;5094994;28;20171;-77
2021/04/25 05:31:06;;;;;;;20.93;5.80;;;8.10;77.10;;;;;;5094522;28;20262;-77
2021/04/25 05:33:32;;;;;;;20.30;5.63;;;8.20;77.00;;;;;;5113086;28;20189;-77
2021/04/25 05:35:58;;;;;;;22.95;6.40;;;8.20;77.00;;;;;;5094804;28;20455;-77
2021/04/25 05:38:24;;;;;;;16.40;6.63;;;8.20;77.10;;;;;;5094633;28;20182;-77
2021/04/25 05:40:50;;;;;;;17.25;6.38;;;8.20;77.00;;;;;;5094535;28;20172;-78
2021/04/25 05:43:16;;;;;;;15.15;6.40;;;8.30;77.30;;;;;;5094336;28;20191;-77
2021/04/25 05:45:42;;;;;;;14.43;5.50;;;8.30;77.40;;;;;;5164022;22;20214;-82
2021/04/25 05:48:08;;;;;;;15.05;6.85;;;8.30;76.70;;;;;;5107501;28;20431;-83
2021/04/25 05:50:34;;;;;;;15.20;6.10;;;8.40;77.00;;;;;;5107602;28;20199;-83
2021/04/25 05:53:00;;;;;;;13.43;6.78;;;8.50;76.40;;;;;;5106942;28;20909;-83
2021/04/25 05:55:27;;;;;;;15.90;6.20;;;8.50;76.00;;;;;;5107514;28;20168;-83
2021/04/25 05:57:53;;;;;;;25.25;7.13;;;8.50;75.80;;;;;;5107396;28;20592;-83
2021/04/25 06:00:25;;;;;;;13.20;6.57;;;8.50;76.00;;;;;;5107053;28;20551;-85
2021/04/25 06:02:52;;;;;;;14.55;6.90;;;8.50;76.30;;;;;;5104980;28;20160;-84
2021/04/25 06:05:20;;;;;;;20.40;6.70;;;8.60;75.80;;;;;;5106613;28;20540;-83
2021/04/25 06:07:50;;;;;;;12.55;5.45;;;8.60;75.80;;;;;;5106932;28;20235;-85
2021/04/25 06:10:19;;;;;;;17.98;6.88;;;8.60;75.80;;;;;;5107067;28;20170;-85
2021/04/25 06:12:48;;;;;;;13.00;6.90;;;8.70;75.80;;;;;;5106205;28;20702;-85
2021/04/25 06:15:15;;;;;;;19.45;7.00;;;8.80;75.80;;;;;;5107553;28;20262;-85
2021/04/25 06:17:40;;;;;;;14.38;7.10;;;8.90;75.30;;;;;;5106176;28;20170;-85
2021/04/25 06:20:07;;;;;;;16.93;7.80;;;8.90;74.50;;;;;;5106694;28;20167;-85
2021/04/25 06:22:33;;;;;;;18.27;7.03;;;9.00;74.40;;;;;;5106127;28;20416;-85
2021/04/25 06:24:59;;;;;;;20.50;8.60;;;9.00;74.50;;;;;;5106682;28;20197;-85
2021/04/25 06:27:26;;;;;;;19.85;6.90;;;9.10;74.50;;;;;;5105487;28;20417;-85
2021/04/25 06:29:52;;;;;;;21.02;7.22;;;9.10;74.40;;;;;;5104440;28;20220;-84
2021/04/25 06:32:18;;;;;;;14.13;7.20;;;9.10;74.20;;;;;;5105367;28;20191;-83
2021/04/25 06:34:44;;;;;;;26.83;8.25;;;9.20;74.10;;;;;;5104803;28;20731;-85
2021/04/25 06:37:10;;;;;;;21.50;7.15;;;9.20;73.80;;;;;;5106349;28;20626;-85
2021/04/25 06:39:36;;;;;;;19.90;8.50;;;9.30;73.70;;;;;;5106500;28;20163;-85
2021/04/25 06:42:02;;;;;;;19.93;7.97;;;9.40;73.50;;;;;;5107544;28;20424;-83
2021/04/25 06:44:28;;;;;;;16.67;7.40;;;9.50;73.30;;;;;;5107039;28;20206;-84
2021/04/25 06:46:54;;;;;;;22.60;8.83;;;9.50;72.80;;;;;;5107229;28;20440;-83
2021/04/25 06:49:21;;;;;;;23.88;9.25;;;9.50;72.70;;;;;;5106606;28;20413;-83
2021/04/25 06:51:47;;;;;;;23.88;8.90;;;9.60;72.80;;;;;;5110836;28;20194;-84
2021/04/25 06:54:13;;;;;;;23.27;9.73;;;9.70;72.70;;;;;;5109777;28;20198;-85
2021/04/25 06:56:38;;;;;;;21.20;8.73;;;9.70;72.40;;;;;;5110713;28;20179;-84
2021/04/25 06:59:05;;;;;;;29.50;12.23;;;9.90;72.30;;;;;;5110743;28;20171;-84
2021/04/25 07:01:31;;;;;;;17.10;9.10;;;10.00;71.20;;;;;;5111760;28;20228;-84
2021/04/25 07:03:57;;;;;;;22.07;9.70;;;10.00;71.20;;;;;;5111555;28;20187;-84
2021/04/25 07:06:23;;;;;;;19.73;11.00;;;10.10;71.30;;;;;;5111090;28;20421;-84
2021/04/25 07:08:49;;;;;;;20.47;8.70;;;10.10;71.60;;;;;;5111243;28;20201;-84
2021/04/25 07:11:15;;;;;;;21.83;9.43;;;10.20;71.30;;;;;;5112360;28;20424;-84
2021/04/25 07:13:40;;;;;;;26.75;11.18;;;10.30;70.90;;;;;;5111009;28;20289;-84
2021/04/25 07:16:06;;;;;;;30.73;11.20;;;10.40;70.60;;;;;;5110967;28;20167;-84
2021/04/25 07:18:33;;;;;;;25.90;10.70;;;10.30;70.90;;;;;;5108703;28;20413;-85
2021/04/25 07:20:59;;;;;;;26.38;9.20;;;10.40;70.60;;;;;;5107920;28;20408;-84
2021/04/25 07:23:25;;;;;;;23.08;9.25;;;10.60;69.90;;;;;;5106694;28;20187;-84
2021/04/25 07:25:56;;;;;;;26.05;11.02;;;10.80;69.60;;;;;;5108079;28;20171;-84
2021/04/25 07:28:23;;;;;;;28.83;10.45;;;10.80;69.20;;;;;;5109155;28;20171;-84
2021/04/25 07:30:49;;;;;;;19.67;9.93;;;10.90;69.50;;;;;;5108720;28;20814;-84
2021/04/25 07:33:16;;;;;;;23.92;9.48;;;10.90;69.40;;;;;;5106688;28;20211;-83
2021/04/25 07:35:42;;;;;;;19.92;10.00;;;11.00;68.40;;;;;;5106771;28;20195;-83
2021/04/25 07:38:09;;;;;;;27.05;10.50;;;11.20;68.30;;;;;;5109289;28;20601;-85
2021/04/25 07:40:37;;;;;;;21.98;10.85;;;11.40;67.40;;;;;;5108478;28;20167;-82
2021/04/25 07:43:03;;;;;;;24.45;10.32;;;11.50;67.00;;;;;;5108729;28;20620;-82
2021/04/25 07:45:30;;;;;;;27.17;11.10;;;11.40;67.10;;;;;;5106906;28;20200;-83
2021/04/25 07:47:55;;;;;;;28.15;10.60;;;11.40;66.90;;;;;;5110015;28;20175;-83
2021/04/25 07:50:22;;;;;;;28.67;11.20;;;11.40;66.70;;;;;;5108869;28;20816;-83
2021/04/25 07:52:47;;;;;;;18.20;9.82;;;11.50;66.70;;;;;;5108627;28;20557;-83
2021/04/25 07:55:13;;;;;;;30.27;13.33;;;11.50;67.00;;;;;;5108353;28;20278;-83
2021/04/25 07:57:39;;;;;;;31.13;12.00;;;11.50;66.70;;;;;;5108579;28;20163;-83
2021/04/25 08:00:09;;;;;;;23.88;12.20;;;11.70;65.90;;;;;;5108019;28;20190;-80
2021/04/25 08:02:34;;;;;;;29.90;11.50;;;11.80;65.20;;;;;;5108914;28;20183;-83
2021/04/25 08:05:00;;;;;;;27.60;12.00;;;11.90;65.10;;;;;;5107653;28;20182;-83
2021/04/25 08:07:26;;;;;;;31.33;13.43;;;11.90;64.50;;;;;;5108356;28;20445;-83
2021/04/25 08:09:52;;;;;;;31.30;11.83;;;12.00;64.80;;;;;;5108768;28;20824;-83
2021/04/25 08:12:17;;;;;;;26.63;11.63;;;12.20;64.40;;;;;;5108990;28;20236;-84
2021/04/25 08:14:44;;;;;;;23.43;12.07;;;12.30;63.80;;;;;;5106535;28;20448;-82
2021/04/25 08:17:09;;;;;;;29.23;11.77;;;12.60;64.60;;;;;;5106867;28;20699;-82
2021/04/25 08:19:35;;;;;;;23.17;11.33;;;12.70;62.40;;;;;;5108219;28;20198;-84
2021/04/25 08:22:01;;;;;;;27.67;11.47;;;12.70;62.00;;;;;;5106103;28;20415;-84
2021/04/25 08:24:27;;;;;;;22.60;12.27;;;12.60;61.90;;;;;;5104670;28;20187;-84
2021/04/25 08:26:53;;;;;;;28.40;13.70;;;12.60;62.00;;;;;;5105633;28;20507;-80
2021/04/25 08:29:19;;;;;;;25.65;11.10;;;12.70;62.10;;;;;;5107365;28;20417;-81
2021/04/25 08:31:45;;;;;;;27.10;12.53;;;12.80;62.40;;;;;;5106558;28;20199;-84
2021/04/25 08:34:11;;;;;;;28.05;12.88;;;12.80;61.90;;;;;;5106075;28;20441;-81
2021/04/25 08:36:36;;;;;;;24.03;10.80;;;12.90;61.60;;;;;;5106856;28;20224;-81
2021/04/25 08:39:04;;;;;;;28.33;12.50;;;13.10;60.50;;;;;;5106014;28;20179;-82
2021/04/25 08:41:30;;;;;;;29.52;14.13;;;13.20;60.90;;;;;;5106069;28;20243;-82
2021/04/25 08:43:59;;;;;;;25.50;12.37;;;13.30;60.50;;;;;;5106251;28;20214;-82
2021/04/25 08:46:27;;;;;;;30.40;12.48;;;13.40;60.80;;;;;;5105644;28;20519;-83
2021/04/25 08:48:54;;;;;;;23.38;11.93;;;13.50;59.80;;;;;;5105787;28;20175;-82
2021/04/25 08:51:21;;;;;;;21.45;12.05;;;13.50;59.10;;;;;;5106002;28;20171;-82
2021/04/25 08:53:48;;;;;;;29.05;10.93;;;13.60;59.20;;;;;;5105277;28;20293;-82
2021/04/25 08:56:15;;;;;;;28.02;12.40;;;13.70;58.50;;;;;;5105998;28;20216;-82
2021/04/25 08:58:43;;;;;;;27.00;12.15;;;13.90;58.70;;;;;;5106843;28;20168;-82
2021/04/25 09:01:09;;;;;;;24.23;11.88;;;14.00;57.70;;;;;;5106912;28;20179;-84
2021/04/25 09:03:35;;;;;;;27.67;11.80;;;13.90;57.40;;;;;;5105074;28;20219;-84
2021/04/25 09:06:03;;;;;;;31.05;12.60;;;13.90;56.80;;;;;;5105499;28;20167;-82
2021/04/25 09:08:51;;;;;;;30.73;11.10;;;13.90;56.70;;;;;;5106412;28;20189;-81
2021/04/25 09:11:30;;;;;;;20.70;10.88;;;13.90;56.20;;;;;;5104824;28;20178;-82
2021/04/25 09:14:18;;;;;;;23.35;9.98;;;14.00;55.90;;;;;;5104949;28;20187;-82
2021/04/25 09:17:06;;;;;;;23.38;9.93;;;14.20;55.30;;;;;;5105384;28;20170;-81
2021/04/25 09:19:55;;;;;;;23.35;11.13;;;14.50;54.30;;;;;;5104008;28;20163;-82
2021/04/25 09:22:24;;;;;;;33.13;12.02;;;14.70;53.40;;;;;;5103567;28;20654;-82
2021/04/25 09:25:06;;;;;;;24.45;10.52;;;14.90;53.40;;;;;;5103826;28;20198;-81
2021/04/25 09:27:32;;;;;;;25.50;10.43;;;15.00;51.90;;;;;;5104113;28;20220;-82
2021/04/25 09:29:58;;;;;;;21.70;9.70;;;15.10;51.20;;;;;;5103616;28;20540;-82
2021/04/25 09:32:33;;;;;;;21.83;9.75;;;15.30;51.60;;;;;;5104493;28;20441;-82
2021/04/25 09:35:17;;;;;;;18.15;8.23;;;15.60;50.70;;;;;;5105960;28;20187;-82
2021/04/25 09:37:47;;;;;;;14.98;8.00;;;15.70;50.40;;;;;;5103991;28;20192;-82
2021/04/25 09:40:28;;;;;;;29.67;9.57;;;15.80;49.60;;;;;;5105036;28;20596;-82
2021/04/25 09:43:08;;;;;;;19.63;9.32;;;15.80;49.00;;;;;;5103539;28;20195;-84
2021/04/25 09:45:36;;;;;;;22.40;10.10;;;15.60;49.80;;;;;;5104871;28;20622;-83
2021/04/25 09:48:26;;;;;;;21.13;10.75;;;15.80;49.90;;;;;;5105027;28;20179;-82
2021/04/25 09:51:18;;;;;;;16.40;9.23;;;15.90;49.60;;;;;;5104141;28;20234;-82
2021/04/25 09:53:53;;;;;;;25.08;11.10;;;16.00;49.20;;;;;;5104561;28;20678;-83
2021/04/25 09:56:31;;;;;;;19.38;9.38;;;16.00;48.70;;;;;;5105770;28;20202;-82
2021/04/25 09:58:59;;;;;;;18.13;9.35;;;16.10;48.70;;;;;;5104640;28;20170;-84
2021/04/25 10:01:29;;;;;;;20.73;10.23;;;16.20;48.70;;;;;;5102544;28;20175;-85
2021/04/25 10:03:56;;;;;;;21.15;10.85;;;16.30;49.00;;;;;;5104379;28;20190;-82
2021/04/25 10:06:22;;;;;;;23.95;10.27;;;16.50;48.70;;;;;;5103324;28;20182;-82
2021/04/25 10:08:50;;;;;;;21.40;10.85;;;16.40;48.20;;;;;;5103039;28;20175;-84
2021/04/25 10:11:18;;;;;;;22.25;11.05;;;16.30;48.80;;;;;;5103341;28;20179;-84
2021/04/25 10:13:47;;;;;;;16.67;9.38;;;16.40;48.60;;;;;;5104283;28;20191;-82
2021/04/25 10:16:15;;;;;;;19.63;9.95;;;16.60;49.00;;;;;;5104790;28;20167;-83
2021/04/25 10:18:41;;;;;;;19.77;9.05;;;16.90;47.80;;;;;;5103621;28;20167;-82
2021/04/25 10:21:07;;;;;;;21.63;10.35;;;17.00;46.60;;;;;;5104825;28;20175;-82
2021/04/25 10:23:33;;;;;;;24.10;11.43;;;17.10;47.70;;;;;;5103745;28;20191;-82
2021/04/25 10:25:59;;;;;;;23.85;10.32;;;17.20;47.80;;;;;;5103227;28;20401;-81
2021/04/25 10:28:42;;;;;;;20.55;9.57;;;17.20;47.70;;;;;;5103455;28;20680;-82
2021/04/25 10:31:12;;;;;;;18.73;8.98;;;17.30;46.70;;;;;;5103769;28;20159;-82
2021/04/25 10:33:59;;;;;;;24.30;9.23;;;17.60;46.90;;;;;;5103630;28;20230;-82
2021/04/25 10:36:45;;;;;;;22.60;12.07;;;17.80;46.00;;;;;;5104090;28;20170;-83
2021/04/25 10:39:38;;;;;;;19.08;9.70;;;17.90;45.40;;;;;;5104708;28;20224;-82
2021/04/25 10:42:29;;;;;;;18.40;9.70;;;18.20;45.20;;;;;;5103538;28;20198;-82
2021/04/25 10:45:07;;;;;;;20.75;9.48;;;18.30;44.50;;;;;;5103730;28;20187;-83
2021/04/25 10:47:40;;;;;;;14.65;8.98;;;18.30;45.00;;;;;;5101859;28;20654;-83
2021/04/25 10:50:09;;;;;;;19.02;8.45;;;18.20;43.90;;;;;;5102725;28;20207;-83
2021/04/25 10:52:36;;;;;;;20.85;9.13;;;17.90;44.80;;;;;;5101846;28;20191;-83
2021/04/25 10:55:14;;;;;;;16.25;8.65;;;18.10;44.40;;;;;;5102331;28;20171;-83
2021/04/25 10:58:07;;;;;;;14.68;7.63;;;18.40;43.60;;;;;;5101357;28;20178;-83
2021/04/25 11:00:33;;;;;;;16.85;9.27;;;18.50;42.90;;;;;;5101827;28;20151;-83
2021/04/25 11:03:02;;;;;;;17.55;8.90;;;18.60;43.10;;;;;;5101847;28;20187;-83
2021/04/25 11:05:37;;;;;;;20.00;8.82;;;18.30;43.10;;;;;;5121571;28;20195;-83
2021/04/25 11:10:50;;;;;;;17.55;9.10;;;18.50;42.60;;;;;;5121014;27;20167;-83
2021/04/25 11:13:34;;;;;;;13.50;7.30;;;18.30;42.70;;;;;;5106863;28;20213;-82
2021/04/25 11:16:02;;;;;;;14.15;6.95;;;18.30;42.30;;;;;;5108256;28;20530;-82
2021/04/25 11:18:44;;;;;;;17.38;8.40;;;18.50;42.40;;;;;;5106557;28;20163;-82
2021/04/25 11:21:32;;;;;;;17.33;8.25;;;18.60;42.00;;;;;;5108339;28;20178;-82
2021/04/25 11:24:01;;;;;;;15.00;7.28;;;18.80;43.30;;;;;;5106607;28;20191;-82
2021/04/25 11:26:51;;;;;;;20.42;7.80;;;19.20;41.80;;;;;;5106677;28;20193;-83
2021/04/25 11:29:50;;;;;;;15.05;7.30;;;19.50;41.50;;;;;;5107126;28;20167;-83
2021/04/25 11:32:27;;;;;;;12.57;6.90;;;19.80;39.70;;;;;;5124823;28;20179;-82
2021/04/25 11:34:57;;;;;;;14.43;6.40;;;19.50;39.50;;;;;;5107263;28;20190;-82
2021/04/25 11:37:24;;;;;;;12.68;7.38;;;19.40;38.40;;;;;;5107248;28;20167;-82
2021/04/25 11:39:59;;;;;;;12.02;6.35;;;19.50;39.30;;;;;;5107214;28;20236;-83
2021/04/25 11:42:37;;;;;;;13.65;6.82;;;19.40;39.80;;;;;;5108711;28;20185;-83
2021/04/25 11:45:13;;;;;;;15.73;6.25;;;19.50;38.80;;;;;;5108629;28;20178;-83
2021/04/25 11:47:50;;;;;;;12.00;6.18;;;19.70;38.80;;;;;;5167199;22;20301;-85
2021/04/25 11:50:17;;;;;;;14.80;6.43;;;19.90;40.20;;;;;;5099829;28;20215;-85
2021/04/25 11:52:43;;;;;;;8.82;5.60;;;20.00;37.70;;;;;;5098786;28;20202;-85
2021/04/25 11:55:18;;;;;;;13.90;5.40;;;19.80;38.20;;;;;;5099613;28;20175;-86
2021/04/25 11:57:46;;;;;;;11.18;6.03;;;19.80;37.00;;;;;;5098936;28;20412;-86
2021/04/25 12:00:15;;;;;;;10.93;5.57;;;20.00;36.80;;;;;;5098993;28;20171;-86
2021/04/25 12:02:48;;;;;;;9.80;5.50;;;20.10;36.50;;;;;;5098962;28;20240;-85
2021/04/25 12:05:21;;;;;;;8.00;5.07;;;20.40;35.90;;;;;;5099447;28;20167;-86
2021/04/25 12:07:52;;;;;;;11.15;5.20;;;20.40;34.60;;;;;;5099284;28;20266;-85
2021/04/25 12:10:26;;;;;;;13.45;3.85;;;20.40;32.90;;;;;;5098794;28;20167;-86
2021/04/25 12:12:57;;;;;;;11.88;5.00;;;20.40;35.20;;;;;;5099005;28;20203;-86
2021/04/25 12:15:24;;;;;;;11.73;4.05;;;20.30;35.10;;;;;;5098661;28;20260;-85
2021/04/25 12:17:58;;;;;;;7.88;4.50;;;20.20;35.50;;;;;;5098925;28;20181;-85
2021/04/25 12:20:25;;;;;;;9.35;5.22;;;20.10;34.30;;;;;;5098719;28;20632;-85
2021/04/25 12:22:51;;;;;;;10.55;5.20;;;19.80;36.10;;;;;;5098157;28;20175;-85
2021/04/25 12:25:18;;;;;;;7.97;4.43;;;19.80;35.10;;;;;;5098904;28;20175;-87
2021/04/25 12:27:57;;;;;;;7.28;4.20;;;19.90;34.30;;;;;;5098843;28;20167;-86
2021/04/25 12:30:29;;;;;;;9.65;4.00;;;20.10;35.50;;;;;;5098599;28;20261;-87
2021/04/25 12:33:13;;;;;;;7.60;4.00;;;20.50;33.40;;;;;;5098053;28;20210;-87
2021/04/25 12:35:45;;;;;;;6.10;4.32;;;20.70;33.10;;;;;;5098491;28;20574;-87
2021/04/25 12:38:33;;;;;;;15.10;4.28;;;20.70;33.00;;;;;;5098592;28;20573;-86
2021/04/25 12:41:12;;;;;;;12.20;4.78;;;20.70;32.50;;;;;;5098750;28;20193;-87
2021/04/25 12:43:54;;;;;;;8.40;3.70;;;20.40;32.10;;;;;;5098294;28;20183;-87
2021/04/25 12:46:23;;;;;;;10.60;3.95;;;20.50;33.50;;;;;;5098511;28;20179;-87
2021/04/25 12:48:57;;;;;;;8.32;4.07;;;20.50;32.60;;;;;;5098030;28;20240;-87
2021/04/25 12:51:29;;;;;;;7.88;3.55;;;20.60;32.60;;;;;;5097916;28;20575;-88